X  SluitMETAR luchtvaart weer gegevens      EBBR Brussels

Temperatuur

7°C Temperatuur

0°C Dauwpunt

61% Vochtigheid



Wind

 8 KM/U

 5 MPH

 2 M/S

 4 KTS



280°
Het Westen
Huidig weer

Helder Helder
Luchtdruk 1015.92 (hPa) - 30 (in)
Zicht 6.2 (mi) - 10 (km)
Vliegveld
Vliegveld code EBBR

Locatie Brussels 14 (km)

Metar:
EBBR 020850Z 28004KT 220V320 CAVOK 07/00 Q1016 NOSIG

Tijd: 02-04-2020 10:50